• Join FlightAware (Why Join?)
  • Login
  • US Flag 
12:48AM EST


 

Airport Tracker/Info


-or-


 

Live Flight TrackerFlight Track Log ✈ UAL4295 ✈ 13-Jul-2013 ✈ KAVL - KEWR

Flight Track Log - Related Links

Times and Time Zones

All times are in EDT time to prevent confusion due to time zone crossing. See the UAL4295 flight status page for this flight to view local times or setup timezone preferences in your user account.

Time Position Orientation Groundspeed Altitude Reporting Facility
EDT Latitude Longitude Course Direction KTS MPH feet Rate Location/Type
11:55AM 35.3331 -82.4883 73° East 223 257 6,600  Level Atlanta Center
11:56AM 35.5110 -82.2119 76° East  Level FlightAware Approximate
11:56AM 35.3486 -82.4067 77° East 198 228 9,000  Level Atlanta Center
11:57AM 35.5332 -82.1006 76° East  Level FlightAware Approximate
11:57AM 35.3408 -82.3075 95° East 249 287 10,000  Level Atlanta Center
11:58AM 35.5629 -81.9919 71° East  Level FlightAware Approximate
11:58AM 35.3161 -82.1883 104° East 328 377 11,300  Level Atlanta Center
11:59AM 35.5918 -81.8828 73° East  Level FlightAware Approximate
11:59AM 35.3186 -82.0736 88° East 352 405 13,700  Level Atlanta Center
12:00PM 35.6193 -81.7731 73° East  Level FlightAware Approximate
12:00PM 35.3586 -81.9608 66° East 347 399 15,600  Level Atlanta Center
12:01PM 35.4022 -81.8425 66° East 363 418 17,200 1,500 Climbing Atlanta Center
12:02PM 35.4439 -81.7214 67° East 372 428 18,600 1,440 Climbing Atlanta Center
12:03PM 35.4875 -81.6031 66° East 387 445 20,100 1,500 Climbing Atlanta Center
12:04PM 35.5308 -81.4767 67° East 382 440 21,700 1,320 Climbing Atlanta Center
12:05PM 35.5683 -81.3708 66° East 382 440 22,800 780 Climbing Atlanta Center
12:06PM 35.6169 -81.2158 69° East 398 458 23,300 840 Climbing Atlanta Center
12:07PM 35.6681 -81.0864 64° Northeast 427 491 24,500 1,200 Climbing Atlanta Center
12:08PM 35.7361 -80.9661 55° Northeast 427 491 25,700 1,200 Climbing Atlanta Center
12:09PM 35.8061 -80.8508 53° Northeast 425 489 27,000 1,200 Climbing Atlanta Center
12:10PM 35.8783 -80.7353 52° Northeast 419 482 28,200 1,200 Climbing Atlanta Center
12:11PM 35.9458 -80.6144 55° Northeast 424 488 29,400 1,200 Climbing Atlanta Center
12:12PM 36.0133 -80.4936 55° Northeast 424 488 30,600 1,200 Climbing Atlanta Center
12:13PM 36.0808 -80.3775 54° Northeast 418 481 31,800 1,380 Climbing Atlanta Center
12:14PM 36.1928 -80.1939 53° Northeast 416 479 34,200 1,200 Climbing Washington Center
12:15PM 36.2597 -80.0819 53° Northeast 416 479 35,000 360 Climbing Washington Center
12:16PM 36.3197 -79.9772 55° Northeast 410 472 35,000  Level Washington Center
12:17PM 36.3933 -79.8497 54° Northeast 432 497 35,000  Level Washington Center
12:18PM 36.4831 -79.7281 47° Northeast 449 517 35,000  Level Washington Center
12:19PM 36.5836 -79.5986 46° Northeast 471 542 35,000  Level Washington Center
12:20PM 36.6772 -79.4767 46° Northeast 476 548 35,000  Level Washington Center
12:21PM 36.7708 -79.3594 45° Northeast 476 548 35,000  Level Washington Center
12:22PM 36.8533 -79.2492 47° Northeast 481 554 35,000  Level Washington Center
12:23PM 36.9467 -79.1289 46° Northeast 481 554 35,000  Level Washington Center
12:24PM 37.0400 -79.0083 46° Northeast 481 554 35,000  Level Washington Center
12:25PM 37.1397 -78.8747 47° Northeast 476 548 35,000  Level Washington Center
12:26PM 37.2325 -78.7533 46° Northeast 482 555 35,000  Level Washington Center
12:27PM 37.3256 -78.6319 46° Northeast 482 555 35,000  Level Washington Center
12:28PM 37.4139 -78.5153 46° Northeast 475 547 35,000  Level Washington Center
12:29PM 37.4978 -78.4058 46° Northeast 475 547 35,000  Level Washington Center
12:30PM 37.5883 -78.2861 46° Northeast 470 541 35,000  Level Washington Center
12:31PM 37.6850 -78.1531 47° Northeast 465 535 35,000  Level Washington Center
12:32PM 37.7772 -78.0378 45° Northeast 465 535 35,000  Level Washington Center
12:33PM 37.8711 -77.9200 45° Northeast 465 535 35,000  Level Washington Center
12:34PM 37.9631 -77.7989 46° Northeast 470 541 35,000  Level Washington Center
12:35PM 38.0572 -77.6778 45° Northeast 470 541 35,000  Level Washington Center
12:36PM 38.1486 -77.5614 45° Northeast 470 541 35,000  Level Washington Center
12:37PM 38.2381 -77.4447 46° Northeast 470 541 35,000  Level Washington Center
12:38PM 38.3297 -77.3253 46° Northeast 470 541 35,000  Level Washington Center
12:39PM 38.4208 -77.2083 45° Northeast 470 541 35,000  Level Washington Center
12:40PM 38.5142 -77.0883 45° Northeast 470 541 35,000  Level Washington Center
12:41PM 38.6053 -76.9706 45° Northeast 470 541 35,000  Level Washington Center
12:42PM 38.6942 -76.8497 47° Northeast 470 541 35,000  Level Washington Center
12:43PM 38.7850 -76.7342 45° Northeast 470 541 35,000  Level Washington Center
12:44PM 38.8756 -76.6156 46° Northeast 465 535 35,000 -120 Level Washington Center
12:45PM 38.9664 -76.4939 46° Northeast 465 535 34,800 -1,320 Descending Washington Center
12:46PM 39.0567 -76.3722 46° Northeast 465 535 32,400 -2,520 Descending Washington Center
12:47PM 39.1469 -76.2528 46° Northeast 465 535 29,900 -2,640 Descending Washington Center
12:48PM 39.2331 -76.1383 46° Northeast 470 541 27,300 -1,440 Descending Washington Center
12:49PM 39.3314 -76.0236 42° Northeast 476 548 27,000 -180 Descending Washington Center
12:50PM 39.4297 -75.9058 43° Northeast 476 548 27,000 -300 Level Washington Center
12:51PM 39.5281 -75.7881 43° Northeast 476 548 26,500 -1,500 Descending Washington Center
12:52PM 39.6281 -75.6697 42° Northeast 476 548 24,000 -2,520 Descending Washington Center
12:53PM 39.7219 -75.5592 42° Northeast 471 542 21,600 -2,400 Descending Washington Center
12:54PM 39.8114 -75.4483 44° Northeast 454 522 19,300 -2,280 Descending Washington Center
12:55PM 39.9008 -75.3428 42° Northeast 443 510 17,000 -2,340 Descending Washington Center
12:56PM 39.9839 -75.2394 44° Northeast 424 488 14,700 -2,280 Descending Washington Center
12:57PM 40.0689 -75.1361 43° Northeast 412 474 12,600 -1,920 Descending Washington Center
12:58PM 40.1478 -75.0378 44° Northeast 401 461 10,900 -1,440 Descending Washington Center
12:59PM 40.2000 -74.9833 39° Northeast 342 394 10,300 -1,500 Descending New York TRACON
01:00PM 40.2500 -74.9000 52° Northeast 315 362 8,700 -1,260 Descending New York TRACON
01:01PM 40.3167 -74.8333 37° Northeast 272 313 8,000 -660 Descending New York TRACON
01:02PM 40.3500 -74.7500 62° Northeast 257 296 7,400 -840 Descending New York TRACON
01:03PM 40.3667 -74.6667 75° East 236 272 6,400 -720 Descending New York TRACON
01:04PM 40.3667 -74.5833 90° East 201 231 6,000 -660 Descending New York TRACON
01:05PM 40.3667 -74.5167 90° East 187 215 5,100 -540 Descending New York TRACON
01:06PM 40.3667 -74.4500 90° East 195 224 5,000 -300 Descending New York TRACON
01:07PM 40.3667 -74.3833 90° East 181 208 4,600 -540 Descending New York TRACON
01:08PM 40.3667 -74.3167 90° East 177 204 4,000 -300 Descending New York TRACON
01:09PM 40.4000 -74.2833 37° Northeast 195 224 4,000 -480 Level New York TRACON
01:10PM 40.4500 -74.2833 360° North 188 216 3,200 -660 Descending New York TRACON
01:11PM 40.5000 -74.3000 346° North 177 204 2,800 -600 Descending New York TRACON
01:12PM 40.5333 -74.2667 37° Northeast 177 204 2,000 -840 Descending New York TRACON